Latest METARs, TAFs and NOTAMs for SKCL


---------------------------------------------------------------------------
	(OBSERVATIONS)
SKCL 190900Z NIL=
SKCL 190800Z 32003KT 9999 FEW020 SCT090   22/20 A2995=
SKCL 190700Z 06004KT 9999 FEW020  21/20 A2995=
---------------------------------------------------------------------------
	(TERMINAL AREA FORECAST)
SKCL 190500Z 1906/2006 05004KT 9999 FEW030
    PROB40 TEMPO 1909/1912 7000 VCFG SCT010
    BECMG 1912/1914 12012KT
    TEMPO 1919/1922 34014KT 8000 VCSH SCT017TCU
    TEMPO 2002/2005 VRB02KT
    TX32/1919Z TN19/1911Z=
---------------------------------------------------------------------------
	(NOTAMS)


SKCL A0463/17 RWY 02/20 LTD RESTRICTED FLT TRG DUE FAILURES FREQ
    AND FLOW OF TFC 15 FEB 14:15 UNTIL 22 FEB 23:59 ESTIMATED
    H24

SKCL A0627/18 STRIP TWY A1,B,C,D,E,A3,G,R,P,L,K WIP, EXER CTN.
    H24, 26 MAR 20:35 2018 UNTIL 30 JUN 23:59 2018. CREATED:
    26 MAR 20:40 2018

SKCL A0628/18 STRIP RWY 02/20 WIP, EXER CTN. H24, 26 MAR 20:50
    2018 UNTIL 30 JUN 23:59 2018. CREATED: 26 MAR 20:54 2018

SKCL A0629/18 APN, APN CARGA AND APN DESCONGESTION WIP, EXER
    CTN. 26 MAR 21:00 2018 UNTIL 30 JUN 23:59 2018. CREATED:
    26 MAR 21:28 2018

SKCL A0632/17 TURBINE START POINT NR 08 INSTL NEXT COORD: 033207,81N0762307,42W
    TURBINE START POINT NR 09 INSTL NEXT COORD: 033203,04N0762308,24W
    03 MAR 15:00 UNTIL PERM

SKCL A0667/18 TRIGGER NOTAM - AIRAC AIP SUP A14/18 WEF 26APR2018
    INFO AD, TRAINING ZONE REF. AIP AD 2.2, 2.20, 2.21, TRAINING
    ZONE. 26 APR 00:00 2018 UNTIL 09 MAY 23:59 2018. CREATED:
    29 MAR 13:30 2018

SKCL A0675/18 TRIGGER NOTAM - AIRAC AIP SUP A15/18 WEF 26APR2018
    LOCAL REGULATIONS REF. AIP AD 2.20. 26 APR 00:00 2018 UNTIL
    09 MAY 23:59 2018. CREATED: 30 MAR 02:20 2018

SKCL A0729/18 FREQ 125,00 CHG 127,675 MHZ REF. AIP SKCL AD 2.18.
    06 APR 22:17 2018 UNTIL PERM. CREATED: 06 APR 22:17 2018

SKCL A0773/18 ATIS FREQ 115.5 MHZ U/S. H24, 12 APR 14:59 2018
    UNTIL 19 APR 23:59 2018 ESTIMATED. CREATED: 12 APR 15:00
    2018

SKCL A0791/18 CALI CONTROL FREQ 126.7 MHZ WO COVERAGE 20NM TO
    S/SW FROM VOR/DME BUN TIL REP TEDUL. GND - 15000FT AMSL,
    14 APR 01:10 2018 UNTIL 20 APR 23:59 2018 ESTIMATED. CREATED:
    14 APR 01:32 2018

SKCL A1237/17 HELIPORT H1, H2, H3 CLSD TO ALL NGT OPS REF. AIP
    AD 2.16 - SKCL. 03 MAY 19:05 2017 UNTIL PERM. CREATED: 03
    MAY 19:09 2017

SKCL A2332/17 ENG START POINT NR 01 INSTL NEXT COORD: 033219,16N0762318,08W
    REF AIP AD 2 SKCL PLANO DE SPOTS. 25 AUG 21:38 2017 UNTIL
    PERM. CREATED: 25 AUG 21:54 2017

SKCL A4756/16 STAR BUENAVENTURA 2D (BUN2D) HAS CHANGED TO BUENAVENTURA
    3D (BUN3D). 19 DEC 14:48 2016 UNTIL PERM. CREATED: 02 JAN
    21:53 2018

---------------------------------------------------------------------------